sensor_id;sensor_type;location;lat;lon;timestamp;pressure;altitude;pressure_sealevel;temperature;humidity
62847;BME280;49477;35.676;139.586;2023-04-06T00:01:03;101232.55;;;24.84;35.47
62847;BME280;49477;35.676;139.586;2023-04-06T00:03:33;101231.92;;;24.97;35.34
62847;BME280;49477;35.676;139.586;2023-04-06T00:06:02;101234.77;;;25.08;35.15
62847;BME280;49477;35.676;139.586;2023-04-06T00:08:32;101240.50;;;25.10;35.09
62847;BME280;49477;35.676;139.586;2023-04-06T00:11:01;101243.04;;;25.09;35.09
62847;BME280;49477;35.676;139.586;2023-04-06T00:13:31;101244.63;;;24.96;34.94
62847;BME280;49477;35.676;139.586;2023-04-06T00:16:00;101244.31;;;25.02;34.90
62847;BME280;49477;35.676;139.586;2023-04-06T00:18:29;101252.23;;;25.01;34.92
62847;BME280;49477;35.676;139.586;2023-04-06T00:20:59;101243.32;;;25.29;34.79
62847;BME280;49477;35.676;139.586;2023-04-06T00:23:28;101236.76;;;25.05;34.87
62847;BME280;49477;35.676;139.586;2023-04-06T00:25:58;101242.42;;;25.28;34.78
62847;BME280;49477;35.676;139.586;2023-04-06T00:28:27;101238.85;;;25.26;34.78
62847;BME280;49477;35.676;139.586;2023-04-06T00:30:57;101237.41;;;25.31;34.69
62847;BME280;49477;35.676;139.586;2023-04-06T00:33:26;101235.76;;;25.32;34.66
62847;BME280;49477;35.676;139.586;2023-04-06T00:35:56;101225.36;;;24.81;34.65
62847;BME280;49477;35.676;139.586;2023-04-06T00:38:25;101234.10;;;25.10;34.63
62847;BME280;49477;35.676;139.586;2023-04-06T00:40:55;101230.34;;;25.12;34.62
62847;BME280;49477;35.676;139.586;2023-04-06T00:43:24;101229.46;;;25.34;34.64
62847;BME280;49477;35.676;139.586;2023-04-06T00:45:54;101224.92;;;25.15;34.60
62847;BME280;49477;35.676;139.586;2023-04-06T00:48:23;101219.20;;;25.40;34.53
62847;BME280;49477;35.676;139.586;2023-04-06T00:50:52;101214.85;;;25.22;34.50
62847;BME280;49477;35.676;139.586;2023-04-06T00:53:22;101208.64;;;25.47;34.47
62847;BME280;49477;35.676;139.586;2023-04-06T00:55:51;101216.52;;;25.22;34.53
62847;BME280;49477;35.676;139.586;2023-04-06T00:58:21;101215.93;;;25.48;34.51
62847;BME280;49477;35.676;139.586;2023-04-06T01:00:50;101211.71;;;25.55;34.44
62847;BME280;49477;35.676;139.586;2023-04-06T01:03:20;101207.15;;;25.60;34.35
62847;BME280;49477;35.676;139.586;2023-04-06T01:05:49;101210.84;;;25.09;34.37
62847;BME280;49477;35.676;139.586;2023-04-06T01:08:20;101194.79;;;25.41;34.30
62847;BME280;49477;35.676;139.586;2023-04-06T01:10:49;101189.24;;;25.22;34.23
62847;BME280;49477;35.676;139.586;2023-04-06T01:13:19;101179.37;;;25.48;34.19
62847;BME280;49477;35.676;139.586;2023-04-06T01:15:48;101177.41;;;25.58;34.07
62847;BME280;49477;35.676;139.586;2023-04-06T01:18:18;101181.68;;;25.37;33.96
62847;BME280;49477;35.676;139.586;2023-04-06T01:20:47;101170.87;;;25.94;33.86
62847;BME280;49477;35.676;139.586;2023-04-06T01:23:16;101173.53;;;25.55;33.74
62847;BME280;49477;35.676;139.586;2023-04-06T01:25:46;101183.08;;;25.36;33.71
62847;BME280;49477;35.676;139.586;2023-04-06T01:28:15;101174.71;;;25.85;33.71
62847;BME280;49477;35.676;139.586;2023-04-06T01:30:45;101178.82;;;25.59;33.71
62847;BME280;49477;35.676;139.586;2023-04-06T01:33:14;101182.96;;;25.65;33.65
62847;BME280;49477;35.676;139.586;2023-04-06T01:35:44;101186.12;;;26.01;33.59
62847;BME280;49477;35.676;139.586;2023-04-06T01:38:13;101181.24;;;25.77;33.61
62847;BME280;49477;35.676;139.586;2023-04-06T01:40:43;101183.82;;;25.82;33.64
62847;BME280;49477;35.676;139.586;2023-04-06T01:43:12;101170.90;;;25.86;33.68
62847;BME280;49477;35.676;139.586;2023-04-06T01:45:42;101167.84;;;25.83;33.74
62847;BME280;49477;35.676;139.586;2023-04-06T01:48:12;101171.23;;;25.88;33.69
62847;BME280;49477;35.676;139.586;2023-04-06T01:50:41;101171.23;;;25.97;33.64
62847;BME280;49477;35.676;139.586;2023-04-06T01:53:10;101168.75;;;26.02;33.59
62847;BME280;49477;35.676;139.586;2023-04-06T01:55:40;101169.01;;;26.04;33.55
62847;BME280;49477;35.676;139.586;2023-04-06T01:58:09;101170.70;;;25.82;33.52
62847;BME280;49477;35.676;139.586;2023-04-06T02:00:39;101154.11;;;26.09;33.47
62847;BME280;49477;35.676;139.586;2023-04-06T02:03:08;101152.98;;;26.16;33.40
62847;BME280;49477;35.676;139.586;2023-04-06T02:05:38;101149.18;;;26.11;33.48
62847;BME280;49477;35.676;139.586;2023-04-06T02:08:07;101143.92;;;25.94;33.40
62847;BME280;49477;35.676;139.586;2023-04-06T02:10:37;101141.55;;;26.21;33.37
62847;BME280;49477;35.676;139.586;2023-04-06T02:13:06;101140.13;;;26.29;33.28
62847;BME280;49477;35.676;139.586;2023-04-06T02:15:35;101129.98;;;26.33;33.26
62847;BME280;49477;35.676;139.586;2023-04-06T02:18:04;101125.66;;;26.28;33.33
62847;BME280;49477;35.676;139.586;2023-04-06T02:20:34;101117.04;;;26.10;33.31
62847;BME280;49477;35.676;139.586;2023-04-06T02:23:03;101104.97;;;26.43;33.16
62847;BME280;49477;35.676;139.586;2023-04-06T02:25:33;101114.56;;;26.40;33.19
62847;BME280;49477;35.676;139.586;2023-04-06T02:28:02;101110.02;;;26.38;33.19
62847;BME280;49477;35.676;139.586;2023-04-06T02:30:31;101102.03;;;26.13;33.22
62847;BME280;49477;35.676;139.586;2023-04-06T02:33:01;101094.55;;;26.39;33.19
62847;BME280;49477;35.676;139.586;2023-04-06T02:35:31;101092.17;;;26.39;33.16
62847;BME280;49477;35.676;139.586;2023-04-06T02:38:00;101095.94;;;25.95;33.14
62847;BME280;49477;35.676;139.586;2023-04-06T02:40:29;101087.72;;;26.14;33.21
62847;BME280;49477;35.676;139.586;2023-04-06T02:42:59;101091.97;;;25.92;33.28
62847;BME280;49477;35.676;139.586;2023-04-06T02:45:28;101097.53;;;26.02;33.17
62847;BME280;49477;35.676;139.586;2023-04-06T02:47:58;101084.27;;;26.30;33.10
62847;BME280;49477;35.676;139.586;2023-04-06T02:50:27;101092.89;;;26.47;33.16
62847;BME280;49477;35.676;139.586;2023-04-06T02:52:57;101080.09;;;26.25;33.14
62847;BME280;49477;35.676;139.586;2023-04-06T02:55:26;101084.21;;;26.36;33.05
62847;BME280;49477;35.676;139.586;2023-04-06T02:57:56;101076.26;;;26.41;33.04
62847;BME280;49477;35.676;139.586;2023-04-06T03:00:25;101090.06;;;26.18;33.07
62847;BME280;49477;35.676;139.586;2023-04-06T03:02:55;101065.91;;;26.26;32.97
62847;BME280;49477;35.676;139.586;2023-04-06T03:05:24;101081.73;;;26.20;33.03
62847;BME280;49477;35.676;139.586;2023-04-06T03:07:54;101080.86;;;26.71;32.95
62847;BME280;49477;35.676;139.586;2023-04-06T03:10:23;101086.70;;;26.44;33.02
62847;BME280;49477;35.676;139.586;2023-04-06T03:12:53;101095.07;;;26.45;33.00
62847;BME280;49477;35.676;139.586;2023-04-06T03:15:22;101093.57;;;26.45;33.04
62847;BME280;49477;35.676;139.586;2023-04-06T03:17:52;101089.69;;;26.68;33.03
62847;BME280;49477;35.676;139.586;2023-04-06T03:20:22;101082.38;;;26.28;32.98
62847;BME280;49477;35.676;139.586;2023-04-06T03:22:51;101079.65;;;26.42;32.82
62847;BME280;49477;35.676;139.586;2023-04-06T03:25:21;101077.74;;;26.62;32.85
62847;BME280;49477;35.676;139.586;2023-04-06T03:27:50;101070.15;;;26.84;32.84
62847;BME280;49477;35.676;139.586;2023-04-06T03:30:20;101067.76;;;26.40;32.89
62847;BME280;49477;35.676;139.586;2023-04-06T03:32:49;101063.01;;;26.89;32.94
62847;BME280;49477;35.676;139.586;2023-04-06T03:35:19;101061.45;;;26.48;32.94
62847;BME280;49477;35.676;139.586;2023-04-06T03:37:48;101064.07;;;26.75;32.96
62847;BME280;49477;35.676;139.586;2023-04-06T03:40:18;101051.25;;;26.57;32.93
62847;BME280;49477;35.676;139.586;2023-04-06T03:42:47;101054.60;;;26.58;32.94
62847;BME280;49477;35.676;139.586;2023-04-06T03:45:16;101049.82;;;26.85;32.87
62847;BME280;49477;35.676;139.586;2023-04-06T03:47:46;101053.96;;;26.67;32.81
62847;BME280;49477;35.676;139.586;2023-04-06T03:50:16;101052.68;;;26.67;32.84
62847;BME280;49477;35.676;139.586;2023-04-06T03:52:45;101055.11;;;26.69;32.81
62847;BME280;49477;35.676;139.586;2023-04-06T03:55:14;101040.54;;;26.90;32.84
62847;BME280;49477;35.676;139.586;2023-04-06T03:57:44;101058.51;;;26.74;32.79
62847;BME280;49477;35.676;139.586;2023-04-06T04:00:14;101033.84;;;26.76;32.76
62847;BME280;49477;35.676;139.586;2023-04-06T04:02:44;101019.95;;;26.79;32.76
62847;BME280;49477;35.676;139.586;2023-04-06T04:05:13;101021.03;;;26.82;32.72
62847;BME280;49477;35.676;139.586;2023-04-06T04:07:43;101018.89;;;26.85;32.69
62847;BME280;49477;35.676;139.586;2023-04-06T04:10:12;101011.22;;;26.79;32.76
62847;BME280;49477;35.676;139.586;2023-04-06T04:12:42;101020.17;;;26.86;32.69
62847;BME280;49477;35.676;139.586;2023-04-06T04:15:11;100993.31;;;26.87;32.66
62847;BME280;49477;35.676;139.586;2023-04-06T04:17:41;100995.09;;;26.88;32.67
62847;BME280;49477;35.676;139.586;2023-04-06T04:20:10;100991.58;;;26.90;32.69
62847;BME280;49477;35.676;139.586;2023-04-06T04:22:40;100989.80;;;26.91;32.71
62847;BME280;49477;35.676;139.586;2023-04-06T04:25:09;100995.06;;;26.95;32.71
62847;BME280;49477;35.676;139.586;2023-04-06T04:27:38;100998.86;;;26.72;32.71
62847;BME280;49477;35.676;139.586;2023-04-06T04:30:09;100989.75;;;26.94;32.78
62847;BME280;49477;35.676;139.586;2023-04-06T04:32:37;100982.87;;;26.93;32.83
62847;BME280;49477;35.676;139.586;2023-04-06T04:35:08;100978.78;;;27.02;32.78
62847;BME280;49477;35.676;139.586;2023-04-06T04:37:37;100974.63;;;26.98;32.77
62847;BME280;49477;35.676;139.586;2023-04-06T04:40:08;100979.86;;;26.76;32.77
62847;BME280;49477;35.676;139.586;2023-04-06T04:42:37;100976.78;;;26.77;32.76
62847;BME280;49477;35.676;139.586;2023-04-06T04:45:07;100972.19;;;27.01;32.79
62847;BME280;49477;35.676;139.586;2023-04-06T04:47:36;100965.00;;;26.98;32.82
62847;BME280;49477;35.676;139.586;2023-04-06T04:50:06;100965.23;;;27.00;32.83
62847;BME280;49477;35.676;139.586;2023-04-06T04:52:37;100962.47;;;27.03;32.81
62847;BME280;49477;35.676;139.586;2023-04-06T04:55:07;100964.52;;;27.05;32.81
62847;BME280;49477;35.676;139.586;2023-04-06T04:57:35;100956.12;;;26.98;32.92
62847;BME280;49477;35.676;139.586;2023-04-06T05:00:06;100947.10;;;27.00;32.96
62847;BME280;49477;35.676;139.586;2023-04-06T05:02:35;100952.58;;;27.03;33.00
62847;BME280;49477;35.676;139.586;2023-04-06T05:05:05;100940.69;;;26.99;33.10
62847;BME280;49477;35.676;139.586;2023-04-06T05:07:34;100949.08;;;27.06;33.00
62847;BME280;49477;35.676;139.586;2023-04-06T05:10:04;100937.80;;;27.07;32.97
62847;BME280;49477;35.676;139.586;2023-04-06T05:12:34;100938.29;;;26.76;33.10
62847;BME280;49477;35.676;139.586;2023-04-06T05:15:04;100930.83;;;27.10;33.11
62847;BME280;49477;35.676;139.586;2023-04-06T05:17:34;100928.75;;;26.89;33.06
62847;BME280;49477;35.676;139.586;2023-04-06T05:20:03;100930.78;;;27.17;33.07
62847;BME280;49477;35.676;139.586;2023-04-06T05:22:33;100933.42;;;27.21;33.09
62847;BME280;49477;35.676;139.586;2023-04-06T05:25:03;100937.52;;;27.16;33.18
62847;BME280;49477;35.676;139.586;2023-04-06T05:27:32;100928.83;;;27.14;33.30
62847;BME280;49477;35.676;139.586;2023-04-06T05:30:02;100928.97;;;26.83;33.38
62847;BME280;49477;35.676;139.586;2023-04-06T05:32:31;100933.95;;;27.11;33.31
62847;BME280;49477;35.676;139.586;2023-04-06T05:35:01;100929.95;;;27.09;33.19
62847;BME280;49477;35.676;139.586;2023-04-06T05:37:30;100919.69;;;27.15;33.18
62847;BME280;49477;35.676;139.586;2023-04-06T05:40:00;100916.76;;;27.30;33.03
62847;BME280;49477;35.676;139.586;2023-04-06T05:42:37;100914.04;;;27.36;32.98
62847;BME280;49477;35.676;139.586;2023-04-06T05:45:08;100903.95;;;27.38;33.05
62847;BME280;49477;35.676;139.586;2023-04-06T05:47:38;100911.39;;;27.42;33.08
62847;BME280;49477;35.676;139.586;2023-04-06T05:50:08;100908.47;;;27.18;33.07
62847;BME280;49477;35.676;139.586;2023-04-06T05:52:38;100907.26;;;27.17;33.06
62847;BME280;49477;35.676;139.586;2023-04-06T05:55:07;100911.50;;;27.43;33.11
62847;BME280;49477;35.676;139.586;2023-04-06T05:57:36;100908.69;;;27.14;33.02
62847;BME280;49477;35.676;139.586;2023-04-06T06:00:08;100903.36;;;27.45;32.98
62847;BME280;49477;35.676;139.586;2023-04-06T06:02:37;100892.55;;;27.22;32.97
62847;BME280;49477;35.676;139.586;2023-04-06T06:05:07;100899.47;;;27.25;32.99
62847;BME280;49477;35.676;139.586;2023-04-06T06:07:36;100899.61;;;27.24;32.93
62847;BME280;49477;35.676;139.586;2023-04-06T06:10:06;100904.55;;;27.26;32.79
62847;BME280;49477;35.676;139.586;2023-04-06T06:12:36;100893.41;;;27.29;32.65
62847;BME280;49477;35.676;139.586;2023-04-06T06:15:06;100888.56;;;27.30;32.62
62847;BME280;49477;35.676;139.586;2023-04-06T06:17:36;100889.04;;;27.62;32.54
62847;BME280;49477;35.676;139.586;2023-04-06T06:20:06;100882.14;;;27.36;32.51
62847;BME280;49477;35.676;139.586;2023-04-06T06:22:35;100869.43;;;27.31;32.56
62847;BME280;49477;35.676;139.586;2023-04-06T06:25:05;100871.42;;;27.56;32.54
62847;BME280;49477;35.676;139.586;2023-04-06T06:27:34;100858.31;;;27.25;32.57
62847;BME280;49477;35.676;139.586;2023-04-06T06:30:05;100864.76;;;27.48;32.50
62847;BME280;49477;35.676;139.586;2023-04-06T06:32:34;100865.75;;;27.17;32.59
62847;BME280;49477;35.676;139.586;2023-04-06T06:35:04;100878.90;;;27.43;32.62
62847;BME280;49477;35.676;139.586;2023-04-06T06:37:33;100870.76;;;27.44;32.48
62847;BME280;49477;35.676;139.586;2023-04-06T06:40:03;100860.53;;;27.19;32.59
62847;BME280;49477;35.676;139.586;2023-04-06T06:42:32;100873.05;;;27.48;32.64
62847;BME280;49477;35.676;139.586;2023-04-06T06:45:02;100882.16;;;27.42;32.67
62847;BME280;49477;35.676;139.586;2023-04-06T06:47:31;100889.75;;;27.23;32.62
62847;BME280;49477;35.676;139.586;2023-04-06T06:50:00;100886.29;;;27.27;32.36
62847;BME280;49477;35.676;139.586;2023-04-06T06:52:30;100895.90;;;27.33;32.54
62847;BME280;49477;35.676;139.586;2023-04-06T06:54:59;100896.50;;;27.64;33.11
62847;BME280;49477;35.676;139.586;2023-04-06T06:57:29;100895.64;;;27.42;33.41
62847;BME280;49477;35.676;139.586;2023-04-06T06:59:58;100888.80;;;27.22;33.44
62847;BME280;49477;35.676;139.586;2023-04-06T07:02:28;100884.26;;;27.70;33.48
62847;BME280;49477;35.676;139.586;2023-04-06T07:04:57;100905.94;;;27.42;33.36
62847;BME280;49477;35.676;139.586;2023-04-06T07:07:26;100896.67;;;27.71;33.32
62847;BME280;49477;35.676;139.586;2023-04-06T07:09:56;100892.98;;;27.69;33.23
62847;BME280;49477;35.676;139.586;2023-04-06T07:12:30;100900.61;;;27.39;33.38
62847;BME280;49477;35.676;139.586;2023-04-06T07:14:58;100913.57;;;27.42;33.38
62847;BME280;49477;35.676;139.586;2023-04-06T07:17:28;100905.17;;;27.68;33.46
62847;BME280;49477;35.676;139.586;2023-04-06T07:19:58;100909.49;;;27.69;33.66
62847;BME280;49477;35.676;139.586;2023-04-06T07:22:27;100911.67;;;27.68;33.50
62847;BME280;49477;35.676;139.586;2023-04-06T07:24:56;100897.49;;;27.77;33.52
62847;BME280;49477;35.676;139.586;2023-04-06T07:27:26;100908.07;;;27.77;33.67
62847;BME280;49477;35.676;139.586;2023-04-06T07:29:55;100910.56;;;27.76;33.55
62847;BME280;49477;35.676;139.586;2023-04-06T07:32:25;100902.32;;;27.49;33.38
62847;BME280;49477;35.676;139.586;2023-04-06T07:34:55;100908.52;;;27.48;32.86
62847;BME280;49477;35.676;139.586;2023-04-06T07:37:25;100916.05;;;27.50;33.56
62847;BME280;49477;35.676;139.586;2023-04-06T07:39:54;100914.62;;;27.49;33.69
62847;BME280;49477;35.676;139.586;2023-04-06T07:42:24;100907.97;;;27.45;33.73
62847;BME280;49477;35.676;139.586;2023-04-06T07:44:53;100903.49;;;27.69;33.23
62847;BME280;49477;35.676;139.586;2023-04-06T07:47:23;100909.05;;;27.74;33.36
62847;BME280;49477;35.676;139.586;2023-04-06T07:49:54;100908.37;;;27.42;33.03
62847;BME280;49477;35.676;139.586;2023-04-06T07:52:23;100909.37;;;27.39;32.95
62847;BME280;49477;35.676;139.586;2023-04-06T07:54:53;100907.00;;;27.34;32.65
62847;BME280;49477;35.676;139.586;2023-04-06T07:57:22;100911.98;;;27.58;32.92
62847;BME280;49477;35.676;139.586;2023-04-06T07:59:52;100913.29;;;27.55;32.79
62847;BME280;49477;35.676;139.586;2023-04-06T08:02:21;100917.64;;;27.52;32.81
62847;BME280;49477;35.676;139.586;2023-04-06T08:04:50;100912.59;;;27.50;33.07
62847;BME280;49477;35.676;139.586;2023-04-06T08:07:20;100908.99;;;27.18;32.90
62847;BME280;49477;35.676;139.586;2023-04-06T08:09:49;100913.52;;;27.15;33.20
62847;BME280;49477;35.676;139.586;2023-04-06T08:12:19;100908.17;;;27.04;32.76
62847;BME280;49477;35.676;139.586;2023-04-06T08:14:49;100911.65;;;27.20;33.13
62847;BME280;49477;35.676;139.586;2023-04-06T08:17:18;100920.10;;;26.95;33.42
62847;BME280;49477;35.676;139.586;2023-04-06T08:19:48;100916.77;;;27.10;33.12
62847;BME280;49477;35.676;139.586;2023-04-06T08:22:17;100920.23;;;26.78;33.56
62847;BME280;49477;35.676;139.586;2023-04-06T08:24:47;100915.77;;;27.04;33.69
62847;BME280;49477;35.676;139.586;2023-04-06T08:27:17;100926.03;;;27.01;33.66
62847;BME280;49477;35.676;139.586;2023-04-06T08:29:49;100925.74;;;27.02;33.85
62847;BME280;49477;35.676;139.586;2023-04-06T08:32:18;100927.64;;;26.93;33.67
62847;BME280;49477;35.676;139.586;2023-04-06T08:34:48;100933.91;;;26.88;33.98
62847;BME280;49477;35.676;139.586;2023-04-06T08:37:17;100932.26;;;26.86;34.02
62847;BME280;49477;35.676;139.586;2023-04-06T08:39:46;100936.05;;;26.77;33.94
62847;BME280;49477;35.676;139.586;2023-04-06T08:42:20;100930.69;;;26.50;34.06
62847;BME280;49477;35.676;139.586;2023-04-06T08:44:50;100943.29;;;26.95;34.02
62847;BME280;49477;35.676;139.586;2023-04-06T08:47:20;100937.60;;;26.73;34.17
62847;BME280;49477;35.676;139.586;2023-04-06T08:49:50;100950.42;;;26.89;34.18
62847;BME280;49477;35.676;139.586;2023-04-06T08:52:19;100958.77;;;26.53;34.24
62847;BME280;49477;35.676;139.586;2023-04-06T08:54:49;100954.89;;;26.53;34.16
62847;BME280;49477;35.676;139.586;2023-04-06T08:57:18;100955.35;;;26.77;34.50
62847;BME280;49477;35.676;139.586;2023-04-06T08:59:49;100959.50;;;26.47;34.56
62847;BME280;49477;35.676;139.586;2023-04-06T09:02:20;100960.78;;;26.56;34.62
62847;BME280;49477;35.676;139.586;2023-04-06T09:04:52;100964.28;;;26.41;34.71
62847;BME280;49477;35.676;139.586;2023-04-06T09:07:22;100965.18;;;26.26;34.53
62847;BME280;49477;35.676;139.586;2023-04-06T09:09:51;100977.70;;;26.29;34.62
62847;BME280;49477;35.676;139.586;2023-04-06T09:12:29;100982.24;;;26.61;34.86
62847;BME280;49477;35.676;139.586;2023-04-06T09:14:59;100985.23;;;26.45;34.90
62847;BME280;49477;35.676;139.586;2023-04-06T09:17:30;100980.72;;;26.37;34.86
62847;BME280;49477;35.676;139.586;2023-04-06T09:20:00;100981.10;;;26.08;35.07
62847;BME280;49477;35.676;139.586;2023-04-06T09:22:37;100980.50;;;26.49;35.05
62847;BME280;49477;35.676;139.586;2023-04-06T09:25:07;100985.83;;;26.35;35.16
62847;BME280;49477;35.676;139.586;2023-04-06T09:27:37;100988.26;;;26.00;35.24
62847;BME280;49477;35.676;139.586;2023-04-06T09:30:08;100984.46;;;26.14;35.43
62847;BME280;49477;35.676;139.586;2023-04-06T09:32:54;100987.92;;;26.32;35.64
62847;BME280;49477;35.676;139.586;2023-04-06T09:35:24;100992.26;;;26.04;35.95
62847;BME280;49477;35.676;139.586;2023-04-06T09:37:54;100989.78;;;26.30;36.11
62847;BME280;49477;35.676;139.586;2023-04-06T09:40:24;100995.75;;;25.95;36.05
62847;BME280;49477;35.676;139.586;2023-04-06T09:42:53;100993.52;;;26.03;36.22
62847;BME280;49477;35.676;139.586;2023-04-06T09:45:22;101004.73;;;26.09;36.33
62847;BME280;49477;35.676;139.586;2023-04-06T09:47:52;101009.13;;;26.01;36.35
62847;BME280;49477;35.676;139.586;2023-04-06T09:50:22;101018.16;;;26.17;36.33
62847;BME280;49477;35.676;139.586;2023-04-06T09:52:54;101025.29;;;26.19;36.24
62847;BME280;49477;35.676;139.586;2023-04-06T09:55:30;101027.25;;;26.14;36.50
62847;BME280;49477;35.676;139.586;2023-04-06T09:58:06;101026.91;;;26.15;36.36
62847;BME280;49477;35.676;139.586;2023-04-06T10:00:42;101032.16;;;26.20;36.40
62847;BME280;49477;35.676;139.586;2023-04-06T10:03:19;101043.15;;;26.12;36.24
62847;BME280;49477;35.676;139.586;2023-04-06T10:05:55;101039.47;;;26.06;36.36
62847;BME280;49477;35.676;139.586;2023-04-06T10:08:25;101035.28;;;26.11;36.32
62847;BME280;49477;35.676;139.586;2023-04-06T10:10:56;101045.31;;;26.02;36.54
62847;BME280;49477;35.676;139.586;2023-04-06T10:13:26;101033.11;;;25.92;36.65
62847;BME280;49477;35.676;139.586;2023-04-06T10:15:56;101040.10;;;26.02;36.56
62847;BME280;49477;35.676;139.586;2023-04-06T10:18:26;101052.56;;;26.05;36.58
62847;BME280;49477;35.676;139.586;2023-04-06T10:21:06;101049.83;;;25.64;36.80
62847;BME280;49477;35.676;139.586;2023-04-06T10:23:39;101048.74;;;26.16;36.92
62847;BME280;49477;35.676;139.586;2023-04-06T10:26:15;101049.03;;;25.93;37.14
62847;BME280;49477;35.676;139.586;2023-04-06T10:28:45;101050.70;;;25.91;37.26
62847;BME280;49477;35.676;139.586;2023-04-06T10:31:14;101048.80;;;25.78;37.71
62847;BME280;49477;35.676;139.586;2023-04-06T10:33:54;101058.88;;;26.19;37.73
62847;BME280;49477;35.676;139.586;2023-04-06T10:36:24;101068.93;;;25.87;37.87
62847;BME280;49477;35.676;139.586;2023-04-06T10:38:57;101069.99;;;25.80;37.87
62847;BME280;49477;35.676;139.586;2023-04-06T10:41:34;101072.31;;;25.75;38.07
62847;BME280;49477;35.676;139.586;2023-04-06T10:44:04;101077.89;;;25.74;37.86
62847;BME280;49477;35.676;139.586;2023-04-06T10:46:34;101081.41;;;25.72;37.94
62847;BME280;49477;35.676;139.586;2023-04-06T10:49:12;101082.30;;;25.81;37.73
62847;BME280;49477;35.676;139.586;2023-04-06T10:51:41;101085.47;;;25.84;37.92
62847;BME280;49477;35.676;139.586;2023-04-06T10:54:12;101081.96;;;25.58;37.98
62847;BME280;49477;35.676;139.586;2023-04-06T10:56:42;101073.82;;;25.61;38.27
62847;BME280;49477;35.676;139.586;2023-04-06T10:59:11;101076.57;;;25.82;38.81
62847;BME280;49477;35.676;139.586;2023-04-06T11:01:45;101079.24;;;25.81;39.23
62847;BME280;49477;35.676;139.586;2023-04-06T11:04:16;101071.93;;;25.85;39.50
62847;BME280;49477;35.676;139.586;2023-04-06T11:06:48;101072.89;;;25.82;39.96
62847;BME280;49477;35.676;139.586;2023-04-06T11:09:26;101074.16;;;26.15;40.07
62847;BME280;49477;35.676;139.586;2023-04-06T11:11:56;101075.54;;;25.69;39.60
62847;BME280;49477;35.676;139.586;2023-04-06T11:14:25;101081.87;;;26.27;39.93
62847;BME280;49477;35.676;139.586;2023-04-06T11:16:55;101079.50;;;26.00;39.71
62847;BME280;49477;35.676;139.586;2023-04-06T11:19:24;101086.15;;;25.79;39.95
62847;BME280;49477;35.676;139.586;2023-04-06T11:21:54;101085.36;;;25.74;39.88
62847;BME280;49477;35.676;139.586;2023-04-06T11:24:24;101094.14;;;25.80;40.00
62847;BME280;49477;35.676;139.586;2023-04-06T11:26:55;101093.95;;;25.72;39.93
62847;BME280;49477;35.676;139.586;2023-04-06T11:29:26;101094.65;;;25.67;39.60
62847;BME280;49477;35.676;139.586;2023-04-06T11:32:00;101100.42;;;25.68;39.68
62847;BME280;49477;35.676;139.586;2023-04-06T11:34:30;101100.57;;;25.52;39.65
62847;BME280;49477;35.676;139.586;2023-04-06T11:37:01;101101.82;;;25.75;40.06
62847;BME280;49477;35.676;139.586;2023-04-06T11:39:30;101103.92;;;25.68;39.99
62847;BME280;49477;35.676;139.586;2023-04-06T11:42:01;101100.55;;;25.75;39.76
62847;BME280;49477;35.676;139.586;2023-04-06T11:44:33;101099.65;;;25.66;39.74
62847;BME280;49477;35.676;139.586;2023-04-06T11:47:05;101102.05;;;25.72;40.24
62847;BME280;49477;35.676;139.586;2023-04-06T11:49:38;101098.26;;;25.62;39.79
62847;BME280;49477;35.676;139.586;2023-04-06T11:52:17;101098.41;;;25.67;40.11
62847;BME280;49477;35.676;139.586;2023-04-06T11:54:47;101096.16;;;25.68;40.30
62847;BME280;49477;35.676;139.586;2023-04-06T11:57:18;101099.57;;;25.63;40.00
62847;BME280;49477;35.676;139.586;2023-04-06T11:59:49;101099.37;;;25.65;39.90
62847;BME280;49477;35.676;139.586;2023-04-06T12:02:19;101092.03;;;25.65;39.79
62847;BME280;49477;35.676;139.586;2023-04-06T12:04:48;101097.70;;;25.65;39.91
62847;BME280;49477;35.676;139.586;2023-04-06T12:07:17;101100.54;;;25.91;39.83
62847;BME280;49477;35.676;139.586;2023-04-06T12:09:48;101101.30;;;25.79;39.89
62847;BME280;49477;35.676;139.586;2023-04-06T12:12:18;101094.96;;;25.58;40.02
62847;BME280;49477;35.676;139.586;2023-04-06T12:14:48;101086.55;;;25.58;39.91
62847;BME280;49477;35.676;139.586;2023-04-06T12:17:18;101088.91;;;25.90;39.72
62847;BME280;49477;35.676;139.586;2023-04-06T12:19:47;101084.73;;;25.64;39.85
62847;BME280;49477;35.676;139.586;2023-04-06T12:22:17;101082.09;;;25.67;40.04
62847;BME280;49477;35.676;139.586;2023-04-06T12:24:46;101083.04;;;25.63;40.05
62847;BME280;49477;35.676;139.586;2023-04-06T12:27:15;101072.56;;;25.60;40.05
62847;BME280;49477;35.676;139.586;2023-04-06T12:29:45;101066.35;;;25.86;40.13
62847;BME280;49477;35.676;139.586;2023-04-06T12:32:14;101064.89;;;25.63;40.15
62847;BME280;49477;35.676;139.586;2023-04-06T12:34:43;101059.01;;;25.59;39.89
62847;BME280;49477;35.676;139.586;2023-04-06T12:37:12;101050.44;;;25.89;40.07
62847;BME280;49477;35.676;139.586;2023-04-06T12:39:42;101057.66;;;25.64;40.17
62847;BME280;49477;35.676;139.586;2023-04-06T12:42:13;101067.61;;;25.63;40.20
62847;BME280;49477;35.676;139.586;2023-04-06T12:44:42;101065.48;;;25.66;40.15